Wetterdaten: Woche 20.12.10 - 26.12.10 (KW51)
Datum Zeit Temperatur Luftfeuchte Luftdruck Niederschlag Windrichtung Sonnenschein Solar Wind
20.12.2010 00:00 3,5 C 84 % 999,5 hPa 0,2 l/m SW 0,00 h 0 W/m 20,9 km/h (4 Bft)
20.12.2010 01:00 3,3 C 91 % 1000,4 hPa 0,4 l/m W-SW 0,00 h 0 W/m 26,3 km/h (4 Bft)
20.12.2010 02:00 3,3 C 93 % 1000,9 hPa 0,2 l/m W-SW 0,00 h 0 W/m 25,8 km/h (4 Bft)
20.12.2010 03:00 3,2 C 94 % 1001,8 hPa 0,2 l/m W-SW 0,00 h 0 W/m 22,6 km/h (4 Bft)
20.12.2010 04:00 3,0 C 93 % 1001,9 hPa 0,0 l/m SW 0,00 h 0 W/m 16,9 km/h (3 Bft)
20.12.2010 05:00 2,2 C 94 % 1002,1 hPa 0,0 l/m SW 0,00 h 0 W/m 11,4 km/h (2 Bft)
20.12.2010 06:00 1,7 C 96 % 1002,1 hPa 0,2 l/m SW 0,00 h 0 W/m 13,8 km/h (3 Bft)
20.12.2010 07:00 1,4 C 97 % 1002,3 hPa 1,0 l/m SW 0,00 h 0 W/m 9,1 km/h (2 Bft)
20.12.2010 08:00 0,7 C 97 % 1002,3 hPa 1,4 l/m SW 0,00 h 5 W/m 9,9 km/h (2 Bft)
20.12.2010 09:00 0,6 C 97 % 1002,4 hPa 1,0 l/m SW 0,00 h 16 W/m 11,4 km/h (2 Bft)
20.12.2010 10:00 0,8 C 97 % 1002,0 hPa 0,0 l/m S-SW 0,00 h 65 W/m 11,4 km/h (2 Bft)
20.12.2010 11:00 1,5 C 98 % 1001,5 hPa 0,0 l/m S-SW 0,00 h 128 W/m 13,3 km/h (3 Bft)
20.12.2010 12:00 2,3 C 97 % 1001,1 hPa 0,0 l/m SW 0,00 h 109 W/m 17,6 km/h (3 Bft)
20.12.2010 13:00 3,3 C 95 % 1001,2 hPa 0,0 l/m SW 0,00 h 94 W/m 20,8 km/h (4 Bft)
20.12.2010 14:00 5,8 C 84 % 1001,7 hPa 0,0 l/m SW 0,00 h 63 W/m 31,5 km/h (5 Bft)
20.12.2010 15:00 6,0 C 82 % 1002,6 hPa 0,0 l/m W-SW 0,00 h 33 W/m 35,1 km/h (5 Bft)
20.12.2010 16:00 5,8 C 83 % 1003,6 hPa 0,0 l/m W-SW 0,00 h 9 W/m 31,0 km/h (5 Bft)
20.12.2010 17:00 5,7 C 83 % 1004,0 hPa 0,0 l/m W-SW 0,00 h 0 W/m 26,2 km/h (4 Bft)
20.12.2010 18:00 5,6 C 85 % 1004,7 hPa 0,0 l/m W-SW 0,00 h 0 W/m 27,9 km/h (4 Bft)
20.12.2010 19:00 5,2 C 88 % 1005,7 hPa 0,0 l/m W 0,00 h 0 W/m 19,8 km/h (4 Bft)
20.12.2010 20:00 4,8 C 90 % 1006,2 hPa 0,2 l/m W 0,00 h 0 W/m 13,6 km/h (3 Bft)
20.12.2010 21:00 4,3 C 92 % 1006,3 hPa 0,8 l/m W-NW 0,00 h 0 W/m 6,5 km/h (2 Bft)
20.12.2010 22:00 3,6 C 94 % 1006,6 hPa 0,2 l/m S-SW 0,00 h 0 W/m 7,6 km/h (2 Bft)
20.12.2010 23:00 3,0 C 96 % 1006,8 hPa 0,0 l/m SW 0,00 h 0 W/m 7,5 km/h (2 Bft)
21.12.2010 00:00 2,8 C 97 % 1006,4 hPa 0,0 l/m SW 0,00 h 0 W/m 5,2 km/h (1 Bft)
21.12.2010 01:00 2,9 C 97 % 1006,0 hPa 0,0 l/m SW 0,00 h 0 W/m 7,6 km/h (2 Bft)
21.12.2010 02:00 3,1 C 98 % 1005,9 hPa 0,0 l/m SW 0,00 h 0 W/m 7,2 km/h (2 Bft)
21.12.2010 03:00 2,2 C 97 % 1005,7 hPa 0,0 l/m SW 0,00 h 0 W/m 3,3 km/h (1 Bft)
21.12.2010 04:00 1,2 C 97 % 1005,1 hPa 0,0 l/m SW 0,00 h 0 W/m 4,0 km/h (1 Bft)
21.12.2010 05:00 0,8 C 97 % 1004,7 hPa 0,0 l/m S-SW 0,00 h 0 W/m 9,5 km/h (2 Bft)
21.12.2010 06:00 1,2 C 96 % 1005,0 hPa 0,0 l/m SW 0,00 h 0 W/m 5,5 km/h (1 Bft)
21.12.2010 07:00 0,3 C 95 % 1005,1 hPa 0,0 l/m N 0,00 h 0 W/m 0,4 km/h (0 Bft)
21.12.2010 08:00 -0,6 C 95 % 1005,3 hPa 0,0 l/m S-SW 0,17 h 18 W/m 2,7 km/h (1 Bft)
21.12.2010 09:00 -0,1 C 97 % 1005,6 hPa 0,0 l/m N 0,00 h 53 W/m 1,6 km/h (1 Bft)
21.12.2010 10:00 0,8 C 97 % 1005,9 hPa 0,0 l/m N 0,00 h 93 W/m 0,8 km/h (0 Bft)
21.12.2010 11:00 1,9 C 97 % 1005,9 hPa 0,0 l/m N 0,00 h 125 W/m 0,3 km/h (0 Bft)
21.12.2010 12:00 3,0 C 94 % 1005,6 hPa 0,0 l/m N 0,00 h 122 W/m 0,7 km/h (0 Bft)
21.12.2010 13:00 3,6 C 92 % 1005,1 hPa 0,0 l/m S-SW 0,00 h 86 W/m 1,2 km/h (1 Bft)
21.12.2010 14:00 3,7 C 90 % 1005,3 hPa 0,0 l/m S-SW 0,00 h 40 W/m 1,1 km/h (0 Bft)
21.12.2010 15:00 3,4 C 89 % 1005,5 hPa 0,0 l/m S-SW 0,00 h 15 W/m 2,3 km/h (1 Bft)
21.12.2010 16:00 3,0 C 93 % 1005,0 hPa 0,0 l/m N 0,00 h 6 W/m 6,4 km/h (2 Bft)
21.12.2010 17:00 2,9 C 94 % 1004,8 hPa 0,0 l/m S-SW 0,00 h 0 W/m 7,0 km/h (2 Bft)
21.12.2010 18:00 2,5 C 94 % 1004,8 hPa 0,0 l/m N 0,00 h 0 W/m 1,2 km/h (1 Bft)
21.12.2010 19:00 2,1 C 94 % 1004,8 hPa 0,0 l/m N 0,00 h 0 W/m 0,1 km/h (0 Bft)
21.12.2010 20:00 2,1 C 96 % 1004,4 hPa 0,0 l/m W-SW 0,00 h 0 W/m 2,7 km/h (1 Bft)
21.12.2010 21:00 2,2 C 96 % 1003,9 hPa 0,0 l/m N 0,00 h 0 W/m 0,4 km/h (0 Bft)
21.12.2010 22:00 2,2 C 96 % 1003,3 hPa 0,0 l/m W-SW 0,00 h 0 W/m 1,9 km/h (1 Bft)
21.12.2010 23:00 2,3 C 96 % 1003,0 hPa 0,0 l/m W-SW 0,00 h 0 W/m 2,3 km/h (1 Bft)
22.12.2010 00:00 2,5 C 96 % 1002,2 hPa 0,0 l/m N-NW 0,00 h 0 W/m 4,7 km/h (1 Bft)
22.12.2010 01:00 2,6 C 95 % 1001,9 hPa 0,0 l/m N-NW 0,00 h 0 W/m 4,8 km/h (1 Bft)
22.12.2010 02:00 2,6 C 95 % 1001,4 hPa 0,2 l/m N-NW 0,00 h 0 W/m 8,3 km/h (2 Bft)
22.12.2010 03:00 2,3 C 95 % 1001,4 hPa 0,0 l/m N-NW 0,00 h 0 W/m 7,1 km/h (2 Bft)
22.12.2010 04:00 2,1 C 96 % 1001,7 hPa 0,2 l/m N-NW 0,00 h 0 W/m 4,1 km/h (1 Bft)
22.12.2010 05:00 2,1 C 96 % 1001,2 hPa 0,4 l/m N-NW 0,00 h 0 W/m 6,4 km/h (2 Bft)
22.12.2010 06:00 1,9 C 97 % 1001,3 hPa 0,4 l/m N 0,00 h 0 W/m 7,9 km/h (2 Bft)
22.12.2010 07:00 1,8 C 97 % 1001,9 hPa 0,2 l/m SW 0,00 h 0 W/m 4,5 km/h (1 Bft)
22.12.2010 08:00 1,7 C 97 % 1002,2 hPa 0,4 l/m W 0,00 h 9 W/m 2,9 km/h (1 Bft)
22.12.2010 09:00 1,8 C 98 % 1002,7 hPa 0,4 l/m S-SW 0,00 h 20 W/m 6,4 km/h (2 Bft)
22.12.2010 10:00 2,3 C 98 % 1003,3 hPa 0,6 l/m O-SO 0,00 h 44 W/m 3,9 km/h (1 Bft)
22.12.2010 11:00 2,7 C 98 % 1002,9 hPa 0,2 l/m W-SW 0,17 h 108 W/m 2,9 km/h (1 Bft)
22.12.2010 12:00 3,6 C 98 % 1002,3 hPa 0,0 l/m S-SW 0,25 h 179 W/m 5,2 km/h (1 Bft)
22.12.2010 13:00 5,2 C 96 % 1001,5 hPa 0,0 l/m S-SW 0,58 h 171 W/m 4,7 km/h (1 Bft)
22.12.2010 14:00 6,4 C 93 % 1001,2 hPa 0,0 l/m N 0,83 h 194 W/m 6,7 km/h (2 Bft)
22.12.2010 15:00 5,5 C 95 % 1001,0 hPa 0,0 l/m N-NW 0,00 h 39 W/m 5,5 km/h (1 Bft)
22.12.2010 16:00 4,6 C 95 % 1000,9 hPa 0,0 l/m N 0,00 h 10 W/m 6,4 km/h (2 Bft)
22.12.2010 17:00 3,5 C 95 % 1000,8 hPa 0,0 l/m N 0,00 h 0 W/m 6,8 km/h (2 Bft)
22.12.2010 18:00 2,4 C 95 % 1000,6 hPa 0,0 l/m N-NW 0,00 h 0 W/m 5,3 km/h (1 Bft)
22.12.2010 19:00 1,9 C 96 % 1000,3 hPa 0,0 l/m N-NW 0,00 h 0 W/m 6,2 km/h (2 Bft)
22.12.2010 20:00 1,4 C 96 % 999,9 hPa 0,0 l/m N-NW 0,00 h 0 W/m 3,7 km/h (1 Bft)
22.12.2010 21:00 0,6 C 96 % 999,7 hPa 0,0 l/m N-NW 0,00 h 0 W/m 8,4 km/h (2 Bft)
22.12.2010 22:00 0,5 C 97 % 999,7 hPa 0,0 l/m N-NO 0,00 h 0 W/m 6,7 km/h (2 Bft)
22.12.2010 23:00 0,6 C 98 % 999,4 hPa 0,0 l/m N-NO 0,00 h 0 W/m 4,7 km/h (1 Bft)
23.12.2010 00:00 0,7 C 98 % 999,2 hPa 0,0 l/m N-NO 0,00 h 0 W/m 5,3 km/h (1 Bft)
23.12.2010 01:00 0,6 C 98 % 998,7 hPa 0,0 l/m N-NO 0,00 h 0 W/m 4,9 km/h (1 Bft)
23.12.2010 02:00 0,5 C 98 % 998,3 hPa 0,0 l/m N-NO 0,00 h 0 W/m 3,9 km/h (1 Bft)
23.12.2010 03:00 0,5 C 98 % 998,3 hPa 0,0 l/m N-NW 0,00 h 0 W/m 8,3 km/h (2 Bft)
23.12.2010 04:00 0,6 C 98 % 997,8 hPa 0,0 l/m N 0,00 h 0 W/m 0,7 km/h (0 Bft)
23.12.2010 05:00 0,5 C 98 % 997,3 hPa 0,0 l/m N-NW 0,00 h 0 W/m 3,9 km/h (1 Bft)
23.12.2010 06:00 0,4 C 98 % 996,7 hPa 0,0 l/m N-NW 0,00 h 0 W/m 3,6 km/h (1 Bft)
23.12.2010 07:00 0,3 C 98 % 996,2 hPa 0,0 l/m N-NW 0,00 h 0 W/m 5,5 km/h (1 Bft)
23.12.2010 08:00 0,2 C 98 % 996,2 hPa 0,0 l/m N-NW 0,00 h 14 W/m 4,9 km/h (1 Bft)
23.12.2010 09:00 0,5 C 98 % 995,9 hPa 0,0 l/m N-NO 0,00 h 70 W/m 6,7 km/h (2 Bft)
23.12.2010 10:00 1,5 C 98 % 995,8 hPa 0,0 l/m N 0,08 h 107 W/m 6,3 km/h (2 Bft)
23.12.2010 11:00 2,2 C 95 % 995,1 hPa 0,0 l/m N 0,00 h 111 W/m 5,6 km/h (1 Bft)
23.12.2010 12:00 2,5 C 95 % 994,9 hPa 0,0 l/m NW 0,25 h 124 W/m 3,5 km/h (1 Bft)
23.12.2010 13:00 3,3 C 94 % 994,6 hPa 0,0 l/m NW 0,00 h 105 W/m 2,9 km/h (1 Bft)
23.12.2010 14:00 3,7 C 95 % 994,4 hPa 0,0 l/m N 0,33 h 120 W/m 2,3 km/h (1 Bft)
23.12.2010 15:00 3,7 C 95 % 994,5 hPa 0,0 l/m N 0,00 h 27 W/m 0,1 km/h (0 Bft)
23.12.2010 16:00 3,5 C 94 % 994,8 hPa 0,0 l/m S-SW 0,00 h 6 W/m 3,2 km/h (1 Bft)
23.12.2010 17:00 2,9 C 94 % 994,9 hPa 0,0 l/m N 0,00 h 0 W/m 0,4 km/h (0 Bft)
23.12.2010 18:00 2,6 C 95 % 994,6 hPa 0,0 l/m N 0,00 h 0 W/m 0,1 km/h (0 Bft)
23.12.2010 19:00 2,0 C 95 % 994,9 hPa 0,0 l/m N 0,00 h 0 W/m 0,5 km/h (0 Bft)
23.12.2010 20:00 1,5 C 95 % 994,5 hPa 0,0 l/m N 0,00 h 0 W/m 0,0 km/h (0 Bft)
23.12.2010 21:00 1,0 C 95 % 994,0 hPa 0,0 l/m N 0,00 h 0 W/m 0,3 km/h (0 Bft)
23.12.2010 22:00 0,3 C 95 % 994,4 hPa 0,0 l/m SW 0,00 h 0 W/m 2,1 km/h (1 Bft)
23.12.2010 23:00 0,2 C 96 % 994,5 hPa 0,0 l/m N-NW 0,00 h 0 W/m 2,7 km/h (1 Bft)
24.12.2010 00:00 0,1 C 97 % 994,4 hPa 0,0 l/m N-NW 0,00 h 0 W/m 5,2 km/h (1 Bft)
24.12.2010 01:00 0,3 C 98 % 994,2 hPa 0,0 l/m N-NW 0,00 h 0 W/m 5,1 km/h (1 Bft)
24.12.2010 02:00 0,3 C 98 % 994,2 hPa 0,0 l/m N-NW 0,00 h 0 W/m 5,5 km/h (1 Bft)
24.12.2010 03:00 0,3 C 98 % 994,5 hPa 0,0 l/m N 0,00 h 0 W/m 1,2 km/h (1 Bft)
24.12.2010 04:00 0,5 C 98 % 994,6 hPa 0,2 l/m N-NW 0,00 h 0 W/m 2,1 km/h (1 Bft)
24.12.2010 05:00 0,6 C 98 % 994,3 hPa 0,6 l/m N-NW 0,00 h 0 W/m 4,8 km/h (1 Bft)
24.12.2010 06:00 0,7 C 98 % 994,3 hPa 0,6 l/m N 0,00 h 0 W/m 5,2 km/h (1 Bft)
24.12.2010 07:00 0,8 C 98 % 994,8 hPa 1,2 l/m N-NO 0,00 h 0 W/m 3,7 km/h (1 Bft)
24.12.2010 08:00 0,6 C 98 % 995,3 hPa 0,0 l/m N 0,00 h 0 W/m 2,3 km/h (1 Bft)
24.12.2010 09:00 0,6 C 98 % 996,0 hPa 1,2 l/m N 0,00 h 6 W/m 0,0 km/h (0 Bft)
24.12.2010 10:00 0,8 C 99 % 996,8 hPa 3,0 l/m N-NO 0,00 h 20 W/m 1,5 km/h (1 Bft)
24.12.2010 11:00 1,0 C 98 % 997,2 hPa 2,2 l/m NW 0,00 h 32 W/m 9,1 km/h (2 Bft)
24.12.2010 12:00 0,8 C 97 % 997,8 hPa 1,4 l/m N-NW 0,00 h 35 W/m 8,4 km/h (2 Bft)
24.12.2010 13:00 0,5 C 96 % 998,1 hPa 1,0 l/m W-NW 0,00 h 42 W/m 4,2 km/h (1 Bft)
24.12.2010 14:00 0,3 C 96 % 998,5 hPa 1,0 l/m N 0,00 h 35 W/m 0,0 km/h (0 Bft)
24.12.2010 15:00 -0,1 C 96 % 999,4 hPa 1,0 l/m N 0,00 h 13 W/m 0,0 km/h (0 Bft)
24.12.2010 16:00 -0,4 C 96 % 1000,3 hPa 1,0 l/m N 0,00 h 0 W/m 0,0 km/h (0 Bft)
24.12.2010 17:00 -0,8 C 96 % 1001,2 hPa 0,4 l/m N 0,00 h 0 W/m 0,0 km/h (0 Bft)
24.12.2010 18:00 -0,9 C 96 % 1001,9 hPa 0,6 l/m N 0,00 h 0 W/m 0,0 km/h (0 Bft)
24.12.2010 19:00 -1,1 C 96 % 1002,8 hPa 0,2 l/m N 0,00 h 0 W/m 0,0 km/h (0 Bft)
24.12.2010 20:00 -1,4 C 96 % 1003,6 hPa 0,4 l/m N 0,00 h 0 W/m 0,0 km/h (0 Bft)
24.12.2010 21:00 -1,6 C 96 % 1004,3 hPa 0,2 l/m N 0,00 h 0 W/m 0,0 km/h (0 Bft)
24.12.2010 22:00 -1,8 C 96 % 1004,8 hPa 0,2 l/m N 0,00 h 0 W/m 0,0 km/h (0 Bft)
24.12.2010 23:00 -2,1 C 95 % 1005,5 hPa 0,2 l/m N 0,00 h 0 W/m 0,0 km/h (0 Bft)
25.12.2010 00:00 -2,4 C 95 % 1006,0 hPa 0,0 l/m N 0,00 h 0 W/m 0,0 km/h (0 Bft)
25.12.2010 01:00 -2,7 C 95 % 1006,8 hPa 0,2 l/m N 0,00 h 0 W/m 0,0 km/h (0 Bft)
25.12.2010 02:00 -2,8 C 95 % 1007,5 hPa 0,2 l/m N 0,00 h 0 W/m 0,0 km/h (0 Bft)
25.12.2010 03:00 -3,1 C 95 % 1008,1 hPa 0,2 l/m N 0,00 h 0 W/m 0,0 km/h (0 Bft)
25.12.2010 04:00 -3,4 C 95 % 1008,8 hPa 0,0 l/m N 0,00 h 0 W/m 0,0 km/h (0 Bft)
25.12.2010 05:00 -3,5 C 95 % 1009,5 hPa 0,2 l/m N 0,00 h 0 W/m 0,0 km/h (0 Bft)
25.12.2010 06:00 -3,8 C 94 % 1010,5 hPa 0,4 l/m N 0,00 h 0 W/m 0,0 km/h (0 Bft)
25.12.2010 07:00 -4,2 C 94 % 1011,4 hPa 0,2 l/m N 0,00 h 0 W/m 0,0 km/h (0 Bft)
25.12.2010 08:00 -4,4 C 94 % 1012,4 hPa 0,2 l/m N 0,00 h 5 W/m 0,0 km/h (0 Bft)
25.12.2010 09:00 -4,4 C 94 % 1013,6 hPa 0,2 l/m N 0,00 h 14 W/m 0,0 km/h (0 Bft)
25.12.2010 10:00 -4,1 C 93 % 1014,7 hPa 0,2 l/m N 0,00 h 32 W/m 0,0 km/h (0 Bft)
25.12.2010 11:00 -3,8 C 89 % 1015,4 hPa 0,2 l/m N 0,00 h 54 W/m 0,0 km/h (0 Bft)
25.12.2010 12:00 -3,3 C 88 % 1015,9 hPa 0,0 l/m N 0,00 h 45 W/m 0,0 km/h (0 Bft)
25.12.2010 13:00 -3,7 C 88 % 1016,3 hPa 0,0 l/m N-NO 0,00 h 121 W/m 3,8 km/h (1 Bft)
25.12.2010 14:00 -3,8 C 88 % 1016,9 hPa 0,0 l/m N-NO 0,00 h 79 W/m 6,3 km/h (2 Bft)
25.12.2010 15:00 -4,3 C 88 % 1017,7 hPa 0,0 l/m N-NO 0,00 h 44 W/m 7,6 km/h (2 Bft)
25.12.2010 16:00 -4,7 C 90 % 1018,7 hPa 0,0 l/m N 0,00 h 8 W/m 2,8 km/h (1 Bft)
25.12.2010 17:00 -5,0 C 92 % 1019,7 hPa 0,2 l/m N-NO 0,00 h 0 W/m 3,5 km/h (1 Bft)
25.12.2010 18:00 -5,2 C 92 % 1020,5 hPa 0,0 l/m N 0,00 h 0 W/m 2,9 km/h (1 Bft)
25.12.2010 19:00 -5,5 C 92 % 1021,3 hPa 0,0 l/m N 0,00 h 0 W/m 2,8 km/h (1 Bft)
25.12.2010 20:00 -5,6 C 93 % 1021,9 hPa 0,0 l/m N 0,00 h 0 W/m 1,1 km/h (0 Bft)
25.12.2010 21:00 -6,2 C 92 % 1022,6 hPa 0,0 l/m N 0,00 h 0 W/m 0,9 km/h (0 Bft)
25.12.2010 22:00 -6,4 C 93 % 1023,3 hPa 0,0 l/m N 0,00 h 0 W/m 3,9 km/h (1 Bft)
25.12.2010 23:00 -6,3 C 93 % 1023,6 hPa 0,0 l/m N-NW 0,00 h 0 W/m 4,7 km/h (1 Bft)
26.12.2010 00:00 -6,5 C 92 % 1023,9 hPa 0,0 l/m N-NO 0,00 h 0 W/m 4,0 km/h (1 Bft)
26.12.2010 01:00 -6,9 C 91 % 1024,2 hPa 0,0 l/m N-NW 0,00 h 0 W/m 2,9 km/h (1 Bft)
26.12.2010 02:00 -7,8 C 89 % 1024,7 hPa 0,0 l/m N 0,00 h 0 W/m 0,7 km/h (0 Bft)
26.12.2010 03:00 -8,9 C 90 % 1025,1 hPa 0,0 l/m N-NO 0,00 h 0 W/m 2,5 km/h (1 Bft)
26.12.2010 04:00 -9,3 C 90 % 1025,5 hPa 0,0 l/m N 0,00 h 0 W/m 1,6 km/h (1 Bft)
26.12.2010 05:00 -9,5 C 91 % 1025,9 hPa 0,0 l/m N-NO 0,00 h 0 W/m 1,2 km/h (1 Bft)
26.12.2010 06:00 -10,2 C 90 % 1026,3 hPa 0,0 l/m N 0,00 h 0 W/m 0,0 km/h (0 Bft)
26.12.2010 07:00 -11,3 C 89 % 1026,8 hPa 0,0 l/m N 0,00 h 0 W/m 0,0 km/h (0 Bft)
26.12.2010 08:00 -12,5 C 88 % 1027,5 hPa 0,0 l/m N 0,00 h 8 W/m 0,0 km/h (0 Bft)
26.12.2010 09:00 -13,1 C 89 % 1027,8 hPa 0,0 l/m N 0,00 h 37 W/m 0,0 km/h (0 Bft)
26.12.2010 10:00 -11,6 C 93 % 1028,4 hPa 0,0 l/m N 0,00 h 93 W/m 0,0 km/h (0 Bft)
26.12.2010 11:00 -9,7 C 93 % 1028,4 hPa 0,0 l/m O-SO 0,25 h 118 W/m 1,5 km/h (1 Bft)
26.12.2010 12:00 -8,0 C 89 % 1028,0 hPa 0,0 l/m SW 0,67 h 195 W/m 4,4 km/h (1 Bft)
26.12.2010 13:00 -6,0 C 85 % 1027,6 hPa 0,0 l/m SW 0,67 h 173 W/m 2,7 km/h (1 Bft)
26.12.2010 14:00 -4,8 C 82 % 1027,5 hPa 0,0 l/m SW 0,50 h 149 W/m 3,2 km/h (1 Bft)
26.12.2010 15:00 -5,5 C 83 % 1027,6 hPa 0,0 l/m SW 0,33 h 57 W/m 4,4 km/h (1 Bft)
26.12.2010 16:00 -6,6 C 87 % 1027,5 hPa 0,0 l/m SW 0,17 h 13 W/m 4,7 km/h (1 Bft)
26.12.2010 17:00 -7,8 C 88 % 1027,7 hPa 0,0 l/m N 0,00 h 0 W/m 0,0 km/h (0 Bft)
26.12.2010 18:00 -9,1 C 89 % 1027,9 hPa 0,0 l/m N 0,00 h 0 W/m 0,0 km/h (0 Bft)
26.12.2010 19:00 -8,8 C 92 % 1028,0 hPa 0,0 l/m S-SW 0,00 h 0 W/m 4,5 km/h (1 Bft)
26.12.2010 20:00 -7,8 C 94 % 1027,5 hPa 0,0 l/m S-SW 0,00 h 0 W/m 9,3 km/h (2 Bft)
26.12.2010 21:00 -7,3 C 94 % 1027,5 hPa 0,0 l/m SW 0,00 h 0 W/m 6,0 km/h (2 Bft)
26.12.2010 22:00 -7,1 C 94 % 1027,5 hPa 0,0 l/m N 0,00 h 0 W/m 1,6 km/h (1 Bft)
26.12.2010 23:00 -7,1 C 95 % 1027,6 hPa 0,0 l/m N 0,00 h 0 W/m 0,4 km/h (0 Bft)
Min-Datum _ 26.12.10 20.12.10 24.12.10 - - - - 21.12.10
_ Min-Zeit 09:15 00:00 02:05 - - - - 06:45
Minimum _ -13,2 C 80 % 993,7 hPa - - - - 0,0 km/h (0 Bft)
Max-Datum _ 22.12.10 21.12.10 26.12.10 24.12.10 - 21.12.10 22.12.10 20.12.10
_ Max-Zeit 14:30 07:40 10:35 10:10 - 08:25 12:50 15:25
Maximum _ 7,0 C 100 % 1028,5 hPa 3,0 l/m - 0,08 h 476 W/m 48,3 km/h
W-SW (6 Bft)
Durchschnitt _ -0,5 C 94 % 1006,5 hPa #27,8 l/m SW #5:15 h 65 W/m 5,2 km/h (1 Bft)